Time;durP1;ratioP1;P1;durP2;ratioP2;P2;SDS_P1;SDS_P2;PMS_P1;PMS_P2;Temp;Humidity;BMP_temperature;BMP_pressure;BME280_temperature;BME280_humidity;BME280_pressure;Samples;Min_cycle;Max_cycle;Signal;HPM_P1;HPM_P2
2021/01/12 00:00:22;;;;;;;10.45;2.65;;;14.50;58.20;;;;;;6258135;22;20424;-84
2021/01/12 00:02:50;;;;;;;9.30;2.50;;;14.60;58.30;;;;;;6283849;22;20035;-83
2021/01/12 00:05:16;;;;;;;9.27;2.15;;;14.60;58.30;;;;;;6258406;22;20034;-83
2021/01/12 00:07:42;;;;;;;9.02;2.00;;;14.60;58.30;;;;;;6258163;22;20084;-83
2021/01/12 00:10:09;;;;;;;7.95;1.77;;;14.60;58.30;;;;;;6283861;22;20015;-83
2021/01/12 00:12:36;;;;;;;6.45;1.70;;;14.60;58.30;;;;;;6257881;22;20327;-82
2021/01/12 00:15:05;;;;;;;8.10;2.15;;;14.60;58.40;;;;;;6284654;22;20081;-83
2021/01/12 00:17:32;;;;;;;7.80;2.08;;;14.70;58.50;;;;;;6284168;22;20086;-83
2021/01/12 00:19:57;;;;;;;7.80;2.22;;;14.70;58.50;;;;;;6283423;22;20007;-84
2021/01/12 00:22:23;;;;;;;8.25;1.88;;;14.70;58.50;;;;;;6258036;22;20056;-83
2021/01/12 00:24:50;;;;;;;6.85;2.10;;;14.70;58.60;;;;;;6258056;22;20086;-84
2021/01/12 00:27:20;;;;;;;7.65;2.22;;;14.70;58.60;;;;;;6259112;22;20007;-84
2021/01/12 00:29:46;;;;;;;9.23;2.70;;;14.70;58.60;;;;;;6283194;22;20011;-83
2021/01/12 00:32:22;;;;;;;6.78;2.45;;;14.70;58.60;;;;;;6283702;22;20025;-83
2021/01/12 00:34:48;;;;;;;11.32;2.75;;;14.80;58.70;;;;;;6258628;22;20073;-83
2021/01/12 00:37:21;;;;;;;9.77;2.75;;;14.70;58.60;;;;;;6283018;22;20018;-83
2021/01/12 00:39:48;;;;;;;9.85;2.80;;;14.80;58.70;;;;;;6257832;22;20417;-84
2021/01/12 00:42:14;;;;;;;8.57;2.03;;;14.80;58.60;;;;;;6258382;22;20007;-84
2021/01/12 00:44:40;;;;;;;9.07;2.67;;;14.80;58.60;;;;;;6310445;22;20011;-84
2021/01/12 00:47:07;;;;;;;8.57;2.33;;;14.80;58.60;;;;;;6283599;22;20015;-83
2021/01/12 00:49:34;;;;;;;6.82;2.08;;;14.80;58.60;;;;;;6257631;22;20011;-83
2021/01/12 00:52:00;;;;;;;6.95;2.85;;;14.80;58.60;;;;;;6257599;22;20022;-84
2021/01/12 00:54:26;;;;;;;7.82;2.10;;;14.80;58.50;;;;;;6283613;22;20011;-83
2021/01/12 00:56:54;;;;;;;8.15;1.90;;;14.80;58.50;;;;;;6282864;22;20360;-83
2021/01/12 00:59:20;;;;;;;5.88;2.10;;;14.80;58.50;;;;;;6257554;22;20286;-84
2021/01/12 01:01:47;;;;;;;7.15;2.22;;;14.80;58.50;;;;;;6258381;22;20012;-83
2021/01/12 01:04:17;;;;;;;8.38;2.45;;;14.80;58.50;;;;;;6257753;22;20011;-84
2021/01/12 01:06:44;;;;;;;6.45;2.33;;;14.80;58.50;;;;;;6257670;22;20273;-83
2021/01/12 01:09:11;;;;;;;10.10;1.88;;;14.80;58.50;;;;;;6257340;22;20293;-83
2021/01/12 01:11:42;;;;;;;6.53;2.28;;;14.90;58.60;;;;;;6257990;22;20014;-83
2021/01/12 01:14:09;;;;;;;7.88;2.50;;;14.90;58.50;;;;;;6258160;22;20076;-83
2021/01/12 01:16:36;;;;;;;6.05;1.98;;;14.90;58.50;;;;;;6257867;22;20023;-83
2021/01/12 01:19:02;;;;;;;8.43;2.13;;;14.90;59.20;;;;;;6283479;22;20015;-83
2021/01/12 01:21:28;;;;;;;7.60;2.30;;;14.90;58.50;;;;;;6257524;22;20015;-84
2021/01/12 01:23:54;;;;;;;9.02;2.53;;;14.90;58.50;;;;;;6257758;22;20015;-84
2021/01/12 01:26:21;;;;;;;10.40;2.22;;;14.90;58.50;;;;;;6258657;22;20014;-84
2021/01/12 01:28:47;;;;;;;7.05;1.98;;;14.90;58.60;;;;;;6257589;22;20077;-83
2021/01/12 01:31:13;;;;;;;7.65;2.20;;;14.90;58.60;;;;;;6257491;22;20008;-83
2021/01/12 01:33:39;;;;;;;8.60;2.10;;;14.90;58.60;;;;;;6257557;22;20303;-84
2021/01/12 01:36:08;;;;;;;7.13;1.98;;;14.80;58.60;;;;;;6256979;22;20019;-84
2021/01/12 01:38:34;;;;;;;6.30;1.70;;;14.90;58.70;;;;;;6257196;22;20007;-83
2021/01/12 01:41:00;;;;;;;4.78;1.60;;;14.90;59.30;;;;;;6282974;22;20051;-82
2021/01/12 01:43:26;;;;;;;7.35;1.80;;;14.90;58.70;;;;;;6257102;22;20022;-82
2021/01/12 01:45:52;;;;;;;7.07;2.10;;;14.90;58.70;;;;;;6257352;22;20038;-83
2021/01/12 01:48:19;;;;;;;5.80;2.10;;;14.80;58.70;;;;;;6257297;22;20054;-84
2021/01/12 01:50:46;;;;;;;8.02;1.77;;;14.90;58.70;;;;;;6257001;22;20007;-84
2021/01/12 01:53:12;;;;;;;9.30;2.03;;;14.90;58.80;;;;;;6282762;22;20428;-84
2021/01/12 01:55:39;;;;;;;7.43;1.83;;;14.80;58.70;;;;;;6283542;22;20007;-83
2021/01/12 01:58:07;;;;;;;7.55;1.85;;;14.80;58.70;;;;;;6282730;22;20007;-84
2021/01/12 02:00:34;;;;;;;5.13;1.55;;;14.80;58.80;;;;;;6282825;22;20023;-82
2021/01/12 02:03:20;;;;;;;6.68;2.00;;;14.80;58.80;;;;;;6282912;22;20094;-83
2021/01/12 02:05:58;;;;;;;4.15;1.35;;;14.80;58.80;;;;;;6282920;22;20015;-83
2021/01/12 02:08:35;;;;;;;8.90;1.70;;;14.80;58.90;;;;;;6257195;22;20007;-84
2021/01/12 02:11:01;;;;;;;4.63;1.42;;;14.80;58.90;;;;;;6282737;22;20011;-83
2021/01/12 02:13:32;;;;;;;6.03;1.67;;;14.80;58.90;;;;;;6257377;22;20019;-84
2021/01/12 02:16:01;;;;;;;5.88;1.63;;;14.80;58.90;;;;;;6256973;22;20019;-83
2021/01/12 02:18:32;;;;;;;6.13;1.45;;;14.90;59.00;;;;;;6282732;22;20015;-83
2021/01/12 02:21:01;;;;;;;4.93;1.30;;;14.80;59.00;;;;;;6282674;22;20007;-83
2021/01/12 02:23:36;;;;;;;6.05;1.95;;;14.80;59.00;;;;;;6258184;22;20098;-84
2021/01/12 02:26:03;;;;;;;5.75;1.48;;;14.80;59.00;;;;;;6283311;22;20404;-83
2021/01/12 02:28:28;;;;;;;5.10;1.30;;;14.80;59.10;;;;;;6257332;22;20011;-83
2021/01/12 02:30:55;;;;;;;5.25;1.30;;;14.80;59.10;;;;;;6292641;22;20091;-83
2021/01/12 02:33:21;;;;;;;5.78;1.75;;;14.80;59.10;;;;;;6257031;22;20089;-83
2021/01/12 02:35:52;;;;;;;5.45;1.27;;;14.80;59.10;;;;;;6257124;22;20045;-83
2021/01/12 02:38:18;;;;;;;5.22;1.65;;;14.90;59.20;;;;;;6258639;22;20008;-82
2021/01/12 02:40:44;;;;;;;6.15;1.52;;;14.80;59.20;;;;;;6284225;22;20346;-84
2021/01/12 02:43:10;;;;;;;4.35;1.25;;;14.80;59.20;;;;;;6312465;22;20259;-85
2021/01/12 02:45:36;;;;;;;3.63;1.27;;;14.80;59.20;;;;;;6285065;22;20090;-84
2021/01/12 02:48:02;;;;;;;5.93;1.50;;;14.80;59.30;;;;;;6259123;22;20015;-83
2021/01/12 02:50:28;;;;;;;5.40;1.83;;;14.80;59.30;;;;;;6258504;22;20007;-84
2021/01/12 02:52:54;;;;;;;4.82;1.58;;;14.80;59.30;;;;;;6284761;22;20007;-82
2021/01/12 02:55:20;;;;;;;7.82;1.58;;;14.90;59.40;;;;;;6259162;22;20451;-83
2021/01/12 02:57:46;;;;;;;5.20;1.20;;;14.90;59.40;;;;;;6284740;22;20011;-83
2021/01/12 03:00:14;;;;;;;3.70;1.38;;;14.80;59.40;;;;;;6258713;22;20034;-83
2021/01/12 03:02:40;;;;;;;5.20;1.58;;;14.80;59.40;;;;;;6284485;22;20090;-83
2021/01/12 03:05:08;;;;;;;5.18;1.75;;;14.90;59.40;;;;;;6284597;22;20078;-83
2021/01/12 03:07:35;;;;;;;4.85;1.20;;;14.90;59.50;;;;;;6284718;22;20011;-82
2021/01/12 03:10:02;;;;;;;4.55;1.25;;;14.80;59.40;;;;;;6283847;22;20432;-83
2021/01/12 03:12:28;;;;;;;4.40;1.60;;;14.80;59.40;;;;;;6259027;22;20348;-82
2021/01/12 03:14:53;;;;;;;4.63;1.15;;;14.80;59.40;;;;;;6258864;22;20018;-83
2021/01/12 03:17:20;;;;;;;4.57;1.33;;;14.90;59.50;;;;;;6258953;22;20407;-83
2021/01/12 03:19:46;;;;;;;6.82;1.50;;;14.90;59.50;;;;;;6258719;22;20015;-83
2021/01/12 03:22:12;;;;;;;6.65;1.58;;;14.90;59.40;;;;;;6258349;22;20031;-83
2021/01/12 03:24:38;;;;;;;3.97;1.27;;;14.80;59.40;;;;;;6284086;22;20007;-83
2021/01/12 03:27:05;;;;;;;5.43;1.58;;;14.90;59.50;;;;;;6259110;22;20018;-83
2021/01/12 03:29:32;;;;;;;7.20;1.33;;;14.80;60.00;;;;;;6284021;22;20423;-82
2021/01/12 03:31:58;;;;;;;4.70;1.10;;;14.90;59.40;;;;;;6258734;22;20018;-83
2021/01/12 03:34:24;;;;;;;7.07;1.83;;;14.80;59.40;;;;;;6258518;22;20012;-83
2021/01/12 03:36:50;;;;;;;5.57;1.25;;;14.80;59.40;;;;;;6240702;22;20413;-83
2021/01/12 03:39:16;;;;;;;5.55;1.45;;;14.80;59.40;;;;;;6253619;22;20032;-84
2021/01/12 03:41:42;;;;;;;6.50;1.52;;;14.90;59.50;;;;;;6228584;22;20290;-83
2021/01/12 03:44:08;;;;;;;4.95;1.45;;;14.90;59.50;;;;;;6227744;22;20309;-83
2021/01/12 03:46:34;;;;;;;4.63;1.20;;;14.80;59.40;;;;;;6263783;22;20008;-83
2021/01/12 03:49:00;;;;;;;7.07;1.50;;;14.80;59.40;;;;;;6263811;22;20016;-83
2021/01/12 03:51:26;;;;;;;6.07;1.30;;;14.80;59.40;;;;;;6253795;22;20031;-83
2021/01/12 03:53:52;;;;;;;8.13;1.85;;;14.90;59.50;;;;;;6227628;22;20492;-83
2021/01/12 03:56:18;;;;;;;6.43;2.13;;;14.90;59.60;;;;;;6253356;22;20086;-83
2021/01/12 03:58:44;;;;;;;6.50;1.50;;;14.80;59.50;;;;;;6227830;22;20349;-83
2021/01/12 04:01:11;;;;;;;6.70;1.83;;;14.80;59.50;;;;;;6227528;22;20047;-83
2021/01/12 04:03:39;;;;;;;4.82;1.30;;;14.90;59.60;;;;;;6228258;22;20022;-83
2021/01/12 04:06:11;;;;;;;6.57;1.40;;;14.90;59.60;;;;;;6263474;22;20007;-84
2021/01/12 04:08:42;;;;;;;7.95;1.90;;;14.90;59.50;;;;;;6253258;22;20016;-82
2021/01/12 04:11:08;;;;;;;6.35;1.83;;;14.80;59.50;;;;;;6227708;22;20073;-84
2021/01/12 04:13:34;;;;;;;5.53;1.48;;;14.90;59.50;;;;;;6228787;22;20090;-83
2021/01/12 04:16:01;;;;;;;4.10;1.15;;;14.90;59.50;;;;;;6227917;22;20035;-83
2021/01/12 04:18:28;;;;;;;6.22;1.75;;;14.80;59.40;;;;;;6227888;22;20074;-83
2021/01/12 04:20:54;;;;;;;4.25;1.02;;;14.80;59.40;;;;;;6227601;22;20015;-83
2021/01/12 04:23:20;;;;;;;5.72;1.20;;;14.90;59.50;;;;;;6227477;22;20471;-83
2021/01/12 04:25:46;;;;;;;6.07;1.33;;;14.80;59.30;;;;;;6227469;22;20492;-83
2021/01/12 04:28:11;;;;;;;4.65;1.13;;;14.80;59.30;;;;;;6227587;22;20039;-82
2021/01/12 04:30:37;;;;;;;4.30;0.90;;;14.80;59.30;;;;;;6252628;22;20140;-83
2021/01/12 04:33:03;;;;;;;4.40;1.00;;;14.80;59.30;;;;;;6253116;22;20052;-83
2021/01/12 04:35:29;;;;;;;8.00;1.15;;;14.80;59.30;;;;;;6227704;22;20031;-83
2021/01/12 04:37:55;;;;;;;4.43;1.17;;;14.80;59.20;;;;;;6283468;22;20041;-84
2021/01/12 04:40:22;;;;;;;4.75;1.05;;;14.90;59.30;;;;;;6283746;22;20086;-84
2021/01/12 04:42:48;;;;;;;3.80;0.85;;;14.90;59.90;;;;;;6320952;22;20007;-83
2021/01/12 04:45:13;;;;;;;4.65;1.45;;;14.80;59.20;;;;;;6257974;22;20008;-83
2021/01/12 04:47:39;;;;;;;4.75;0.90;;;14.80;59.20;;;;;;6282916;22;20018;-83
2021/01/12 04:50:06;;;;;;;4.10;1.10;;;14.80;59.10;;;;;;6258247;22;20011;-83
2021/01/12 04:52:48;;;;;;;4.80;1.00;;;14.80;59.10;;;;;;6257879;22;20031;-85
2021/01/12 04:55:16;;;;;;;3.85;0.80;;;14.90;59.10;;;;;;6283585;22;20019;-83
2021/01/12 04:57:43;;;;;;;2.70;0.70;;;14.80;59.10;;;;;;6258072;22;20405;-84
2021/01/12 05:00:12;;;;;;;4.68;1.13;;;14.80;59.10;;;;;;6282711;22;20038;-84
2021/01/12 05:02:39;;;;;;;4.28;1.00;;;14.80;59.00;;;;;;6257729;22;20026;-83
2021/01/12 05:05:06;;;;;;;4.45;1.10;;;14.80;59.10;;;;;;6257444;22;20094;-83
2021/01/12 05:07:33;;;;;;;5.07;1.00;;;14.80;59.00;;;;;;6258009;22;20434;-84
2021/01/12 05:10:00;;;;;;;4.05;0.80;;;14.80;59.00;;;;;;6257984;22;20086;-83
2021/01/12 05:12:27;;;;;;;7.45;1.17;;;14.80;59.00;;;;;;6257303;22;20011;-83
2021/01/12 05:14:56;;;;;;;3.15;0.52;;;14.80;59.00;;;;;;6257049;22;20012;-83
2021/01/12 05:17:23;;;;;;;2.58;0.75;;;14.80;59.00;;;;;;6257358;22;20015;-83
2021/01/12 05:19:55;;;;;;;4.20;0.93;;;14.80;58.90;;;;;;6257674;22;20084;-83
2021/01/12 05:22:21;;;;;;;4.50;1.00;;;14.80;58.90;;;;;;6293222;22;20106;-83
2021/01/12 05:24:49;;;;;;;4.70;0.90;;;14.80;58.90;;;;;;6220462;23;20015;-82
2021/01/12 05:27:15;;;;;;;3.28;0.70;;;14.80;59.00;;;;;;6195253;23;20042;-83
2021/01/12 05:29:41;;;;;;;4.00;0.85;;;14.80;59.00;;;;;;6196549;23;20095;-83
2021/01/12 05:32:09;;;;;;;4.85;0.70;;;14.80;59.00;;;;;;6230902;23;20024;-83
2021/01/12 05:34:38;;;;;;;5.10;1.00;;;14.80;59.00;;;;;;6195291;23;20055;-84
2021/01/12 05:37:06;;;;;;;7.13;1.08;;;14.80;59.10;;;;;;6195373;23;20047;-84
2021/01/12 05:39:52;;;;;;;4.90;0.80;;;14.80;59.10;;;;;;6221460;23;20016;-84
2021/01/12 05:42:19;;;;;;;3.90;0.80;;;14.80;59.20;;;;;;6230602;23;20421;-84
2021/01/12 05:44:45;;;;;;;5.05;0.65;;;14.80;58.90;;;;;;6219583;23;20092;-83
2021/01/12 05:47:16;;;;;;;5.85;0.85;;;14.80;59.50;;;;;;6219753;23;20055;-84
2021/01/12 05:49:45;;;;;;;6.05;0.65;;;14.80;59.50;;;;;;6220455;23;20012;-84
2021/01/12 05:52:11;;;;;;;4.57;0.68;;;14.90;59.50;;;;;;6195113;23;20015;-83
2021/01/12 05:55:06;;;;;;;3.63;1.17;;;14.90;59.50;;;;;;6196708;22;20409;-86
2021/01/12 05:57:38;;;;;;;4.95;0.77;;;15.00;59.60;;;;;;6319714;22;20023;-82
2021/01/12 06:00:05;;;;;;;6.75;1.42;;;15.00;59.70;;;;;;6282382;22;20019;-81
2021/01/12 06:02:35;;;;;;;9.13;0.88;;;15.10;59.90;;;;;;6282510;22;20053;-83
2021/01/12 06:05:01;;;;;;;7.97;1.02;;;15.10;60.10;;;;;;6320056;22;20018;-80
2021/01/12 06:07:27;;;;;;;3.50;0.80;;;15.20;60.40;;;;;;6319288;22;20015;-78
2021/01/12 06:09:55;;;;;;;5.78;0.93;;;15.20;60.50;;;;;;6319959;22;20025;-79
2021/01/12 06:12:25;;;;;;;8.48;1.20;;;15.30;60.70;;;;;;6320123;22;20094;-78
2021/01/12 06:14:52;;;;;;;9.85;0.95;;;15.40;61.00;;;;;;6319948;22;20105;-78
2021/01/12 06:17:18;;;;;;;8.68;1.40;;;15.40;61.00;;;;;;6309260;22;20034;-78
2021/01/12 06:19:46;;;;;;;8.95;1.08;;;15.50;61.20;;;;;;6320054;22;20007;-78
2021/01/12 06:22:23;;;;;;;12.30;1.35;;;15.60;61.30;;;;;;6319788;22;20296;-78
2021/01/12 06:25:05;;;;;;;10.05;1.38;;;15.70;61.40;;;;;;6293265;22;20015;-78
2021/01/12 06:27:32;;;;;;;9.60;1.20;;;15.70;61.50;;;;;;6320105;22;20292;-78
2021/01/12 06:30:10;;;;;;;7.30;1.42;;;15.80;61.50;;;;;;6319881;22;20034;-80
2021/01/12 06:32:36;;;;;;;11.63;1.30;;;15.80;61.60;;;;;;6309604;22;20011;-79
2021/01/12 06:35:11;;;;;;;12.65;1.42;;;15.80;61.80;;;;;;6293211;22;20008;-81
2021/01/12 06:38:08;;;;;;;5.80;1.08;;;15.90;62.10;;;;;;6281278;22;20023;-87
2021/01/12 06:40:36;;;;;;;8.20;1.13;;;15.90;62.10;;;;;;6257283;22;20012;-81
2021/01/12 06:43:05;;;;;;;7.70;1.30;;;16.00;61.90;;;;;;6309465;22;20343;-81
2021/01/12 06:45:36;;;;;;;10.63;1.10;;;16.00;61.90;;;;;;6319083;22;20068;-81
2021/01/12 06:48:04;;;;;;;6.53;1.10;;;16.10;62.00;;;;;;6282645;22;20098;-80
2021/01/12 06:50:31;;;;;;;4.65;0.77;;;16.20;61.90;;;;;;6320384;22;20030;-81
2021/01/12 06:52:57;;;;;;;8.88;1.52;;;16.20;61.80;;;;;;6320026;22;20015;-81
2021/01/12 06:55:23;;;;;;;5.13;1.00;;;16.30;61.80;;;;;;6308859;22;20498;-80
2021/01/12 06:57:51;;;;;;;4.80;1.00;;;16.30;61.70;;;;;;6293817;22;20265;-81
2021/01/12 07:00:19;;;;;;;6.28;0.90;;;16.30;61.70;;;;;;6319893;22;20007;-81
2021/01/12 07:02:57;;;;;;;9.00;1.35;;;16.40;61.50;;;;;;6319711;22;20021;-80
2021/01/12 07:05:23;;;;;;;5.70;0.88;;;16.40;61.50;;;;;;6318880;22;20007;-81
2021/01/12 07:07:51;;;;;;;6.57;0.98;;;16.50;61.50;;;;;;6308039;22;20019;-81
2021/01/12 07:10:19;;;;;;;8.00;0.82;;;16.50;61.40;;;;;;6309289;22;20011;-81
2021/01/12 07:12:46;;;;;;;12.60;1.33;;;16.50;61.40;;;;;;6292557;22;20090;-81
2021/01/12 07:15:20;;;;;;;6.32;0.90;;;16.60;62.20;;;;;;6319174;22;20061;-81
2021/01/12 07:17:50;;;;;;;10.98;1.02;;;16.60;61.60;;;;;;6319351;22;20011;-81
2021/01/12 07:20:27;;;;;;;8.25;0.73;;;16.60;61.50;;;;;;6318729;22;20022;-81
2021/01/12 07:22:59;;;;;;;5.45;0.95;;;16.70;61.40;;;;;;6320601;22;20007;-81
2021/01/12 07:25:36;;;;;;;8.30;0.68;;;16.80;61.40;;;;;;6321174;22;20090;-81
2021/01/12 07:28:03;;;;;;;7.10;1.08;;;16.90;61.30;;;;;;6310421;22;20007;-81
2021/01/12 07:30:30;;;;;;;12.40;1.08;;;16.90;60.90;;;;;;6293849;22;20476;-80
2021/01/12 07:33:00;;;;;;;6.90;1.02;;;17.00;60.70;;;;;;6320945;22;20034;-82
2021/01/12 07:35:27;;;;;;;5.45;0.98;;;16.90;60.80;;;;;;6321074;22;20011;-82
2021/01/12 07:37:53;;;;;;;6.65;1.10;;;16.90;60.80;;;;;;6311782;22;20021;-80
2021/01/12 07:40:20;;;;;;;5.80;0.98;;;17.00;60.90;;;;;;6284061;22;20012;-81
2021/01/12 07:43:04;;;;;;;7.88;1.38;;;17.00;60.90;;;;;;6320245;22;20346;-83
2021/01/12 07:45:32;;;;;;;10.95;0.95;;;17.00;60.40;;;;;;6293362;22;20019;-84
2021/01/12 07:47:59;;;;;;;6.43;0.68;;;16.90;60.10;;;;;;6258075;22;20094;-85
2021/01/12 07:50:27;;;;;;;5.97;0.82;;;17.00;60.00;;;;;;6258319;22;20098;-85
2021/01/12 07:52:57;;;;;;;7.22;1.00;;;16.90;60.00;;;;;;6258470;22;20074;-90
2021/01/12 07:55:24;;;;;;;5.03;0.63;;;16.90;60.00;;;;;;6321568;22;20010;-82
2021/01/12 07:57:51;;;;;;;5.82;1.55;;;16.90;59.80;;;;;;6283418;22;20106;-79
2021/01/12 08:00:18;;;;;;;5.13;0.47;;;16.80;59.70;;;;;;6320384;22;20258;-79
2021/01/12 08:03:00;;;;;;;9.30;0.93;;;16.80;59.70;;;;;;6320267;22;20057;-78
2021/01/12 08:05:31;;;;;;;7.63;0.50;;;16.80;59.80;;;;;;6321149;22;20021;-79
2021/01/12 08:07:59;;;;;;;8.32;1.00;;;16.80;59.70;;;;;;6320338;22;20269;-78
2021/01/12 08:10:25;;;;;;;6.20;0.60;;;16.80;59.60;;;;;;6320497;22;20057;-79
2021/01/12 08:12:51;;;;;;;6.75;0.80;;;16.80;59.10;;;;;;6310859;22;20019;-79
2021/01/12 08:15:17;;;;;;;7.93;0.77;;;16.80;59.00;;;;;;6319223;22;20082;-79
2021/01/12 08:17:48;;;;;;;8.20;1.08;;;16.70;58.80;;;;;;6320403;22;20348;-82
2021/01/12 08:20:15;;;;;;;6.47;0.45;;;16.70;57.90;;;;;;6320303;22;20007;-81
2021/01/12 08:22:54;;;;;;;6.93;0.77;;;16.70;58.00;;;;;;6310251;22;20007;-83
2021/01/12 08:25:21;;;;;;;4.72;0.60;;;16.70;58.80;;;;;;6320141;22;20117;-84
2021/01/12 08:27:52;;;;;;;6.10;0.50;;;16.70;59.10;;;;;;6320659;22;20061;-85
2021/01/12 08:30:26;;;;;;;5.97;0.52;;;16.70;59.10;;;;;;6257145;22;20011;-80
2021/01/12 08:33:14;;;;;;;7.00;0.70;;;16.80;59.10;;;;;;6283090;22;20011;-81
2021/01/12 08:35:45;;;;;;;10.75;1.02;;;16.80;58.10;;;;;;6319629;22;20011;-82
2021/01/12 08:38:13;;;;;;;6.43;0.77;;;16.80;57.90;;;;;;6309670;22;20102;-82
2021/01/12 08:40:41;;;;;;;7.10;0.57;;;16.70;58.30;;;;;;6319761;22;20007;-82
2021/01/12 08:43:20;;;;;;;8.52;1.20;;;16.70;58.50;;;;;;6292849;22;20404;-81
2021/01/12 08:45:47;;;;;;;6.13;0.60;;;16.70;58.60;;;;;;6293694;22;20007;-81
2021/01/12 08:48:15;;;;;;;5.82;0.60;;;16.80;58.60;;;;;;6309700;22;20050;-80
2021/01/12 08:50:42;;;;;;;9.43;1.02;;;16.80;58.50;;;;;;6320141;22;20309;-81
2021/01/12 08:53:09;;;;;;;5.78;0.75;;;16.70;58.50;;;;;;6320428;22;20030;-82
2021/01/12 08:55:35;;;;;;;5.18;0.32;;;16.80;58.60;;;;;;6283625;22;20281;-82
2021/01/12 08:58:08;;;;;;;5.00;0.40;;;16.80;58.90;;;;;;6320354;22;20011;-82
2021/01/12 09:00:37;;;;;;;9.40;0.87;;;16.80;58.70;;;;;;6309973;22;20300;-81
2021/01/12 09:03:04;;;;;;;12.30;0.70;;;16.80;58.90;;;;;;6309858;22;20236;-82
2021/01/12 09:05:38;;;;;;;16.60;1.23;;;16.80;58.90;;;;;;6320040;22;20086;-80
2021/01/12 09:08:12;;;;;;;5.35;0.80;;;16.80;58.80;;;;;;6320445;22;20069;-81
2021/01/12 09:10:39;;;;;;;8.88;0.98;;;16.80;57.90;;;;;;6320463;22;20030;-80
2021/01/12 09:13:10;;;;;;;7.53;1.20;;;16.70;57.00;;;;;;6283322;22;20007;-83
2021/01/12 09:15:43;;;;;;;9.18;1.15;;;16.70;56.50;;;;;;6320093;22;20006;-82
2021/01/12 09:18:19;;;;;;;13.20;1.42;;;16.60;56.70;;;;;;6320054;22;20006;-82
2021/01/12 09:21:06;;;;;;;18.80;1.60;;;16.50;56.70;;;;;;6320197;22;20007;-84
2021/01/12 09:23:32;;;;;;;19.60;1.58;;;16.40;56.50;;;;;;6282864;22;20022;-82
2021/01/12 09:26:03;;;;;;;18.00;1.85;;;16.40;56.70;;;;;;6320436;22;20011;-83
2021/01/12 09:28:30;;;;;;;10.02;1.17;;;16.40;56.70;;;;;;6320515;22;20008;-83
2021/01/12 09:31:04;;;;;;;7.40;1.02;;;16.40;56.80;;;;;;6293721;22;20003;-83
2021/01/12 09:33:30;;;;;;;11.10;1.75;;;16.30;56.90;;;;;;6309950;22;20003;-83
2021/01/12 09:36:02;;;;;;;12.32;0.70;;;16.30;57.20;;;;;;6291856;22;20011;-82
2021/01/12 09:38:39;;;;;;;8.88;1.20;;;16.30;57.90;;;;;;6309619;22;20090;-83
2021/01/12 09:41:05;;;;;;;10.85;0.70;;;16.30;58.20;;;;;;6309453;22;20037;-86
2021/01/12 09:43:31;;;;;;;11.30;0.95;;;16.40;56.80;;;;;;6292757;22;20295;-84
2021/01/12 09:45:58;;;;;;;13.60;1.23;;;16.40;56.80;;;;;;6282425;22;20011;-83
2021/01/12 09:48:24;;;;;;;8.10;1.35;;;16.40;56.80;;;;;;6292510;22;20289;-84
2021/01/12 09:50:50;;;;;;;15.00;1.13;;;16.40;56.60;;;;;;6283241;22;20038;-84
2021/01/12 09:53:17;;;;;;;6.60;0.57;;;16.40;56.70;;;;;;6283001;22;20027;-85
2021/01/12 09:55:43;;;;;;;8.43;0.88;;;16.30;56.70;;;;;;6283448;22;20019;-84
2021/01/12 09:58:09;;;;;;;7.55;0.82;;;16.30;56.90;;;;;;6283079;22;20082;-83
2021/01/12 10:00:35;;;;;;;4.25;0.45;;;16.30;57.10;;;;;;6292782;22;20100;-83
2021/01/12 10:03:01;;;;;;;4.22;0.57;;;16.30;57.20;;;;;;6282614;22;20011;-83
2021/01/12 11:53:13;;;;;;;4.18;0.63;;;15.90;56.20;;;;;;6266336;22;20110;-83
2021/01/12 11:56:19;;;;;;;12.27;1.48;;;15.80;56.00;;;;;;6188540;23;20023;-87
2021/01/12 11:58:51;;;;;;;14.98;1.30;;;15.80;56.20;;;;;;6220721;23;20103;-85
2021/01/12 12:02:06;;;;;;;9.88;1.65;;;15.80;56.90;;;;;;6190363;23;20013;-86
2021/01/12 12:05:56;;;;;;;7.78;1.33;;;15.90;57.30;;;;;;6202879;22;20270;-87
2021/01/12 12:08:42;;;;;;;10.90;1.58;;;15.90;57.80;;;;;;6200293;22;20016;-86
2021/01/12 12:15:31;;;;;;;10.75;1.25;;;16.00;59.30;;;;;;6278540;22;20028;-88
2021/01/12 12:17:57;;;;;;;7.28;1.00;;;16.00;61.30;;;;;;6174670;22;20267;-79
2021/01/12 12:20:25;;;;;;;8.48;0.80;;;16.10;61.80;;;;;;6279538;22;20049;-79
2021/01/12 12:22:51;;;;;;;10.02;1.25;;;16.10;61.10;;;;;;6289790;22;20019;-79
2021/01/12 12:25:16;;;;;;;9.73;1.30;;;16.20;61.40;;;;;;6252762;22;20474;-82
2021/01/12 12:27:42;;;;;;;16.50;1.42;;;16.30;61.10;;;;;;6278998;22;20011;-82
2021/01/12 12:30:09;;;;;;;11.52;1.17;;;16.30;61.30;;;;;;6245352;22;20012;-78
2021/01/12 12:32:35;;;;;;;14.43;2.28;;;16.30;61.10;;;;;;6278870;22;20067;-82
2021/01/12 12:35:01;;;;;;;10.57;0.93;;;16.40;60.90;;;;;;6278333;22;20012;-81
2021/01/12 12:37:26;;;;;;;10.65;1.20;;;16.50;60.60;;;;;;6289796;22;20074;-84
2021/01/12 12:39:52;;;;;;;11.65;1.17;;;16.50;60.50;;;;;;6227211;22;20073;-83
2021/01/12 12:42:18;;;;;;;15.43;2.17;;;16.50;60.40;;;;;;6289800;22;20012;-82
2021/01/12 12:44:44;;;;;;;9.65;1.33;;;16.60;60.30;;;;;;6279338;22;20087;-83
2021/01/12 12:47:30;;;;;;;10.43;1.80;;;16.60;60.40;;;;;;6236100;22;20016;-80
2021/01/12 12:49:56;;;;;;;8.57;1.10;;;16.60;60.40;;;;;;6289720;22;20012;-81
2021/01/12 12:52:23;;;;;;;7.65;1.40;;;16.60;60.30;;;;;;6262938;22;20023;-81
2021/01/12 12:54:48;;;;;;;7.95;0.93;;;16.70;60.40;;;;;;6294155;22;20408;-82
2021/01/12 12:57:15;;;;;;;11.98;1.98;;;16.70;60.30;;;;;;6283764;22;20011;-81
2021/01/12 12:59:41;;;;;;;7.90;1.33;;;16.80;60.30;;;;;;6293689;22;20342;-82
2021/01/12 13:02:07;;;;;;;10.18;1.63;;;16.70;60.30;;;;;;6320810;22;20012;-82
2021/01/12 13:04:33;;;;;;;7.32;0.73;;;16.80;60.40;;;;;;6309736;22;20080;-81
2021/01/12 13:07:00;;;;;;;6.55;0.80;;;16.80;60.40;;;;;;6293037;22;20420;-81
2021/01/12 13:09:26;;;;;;;11.70;1.23;;;16.80;60.40;;;;;;6293330;22;20056;-79
2021/01/12 13:11:54;;;;;;;8.57;0.85;;;16.90;60.40;;;;;;6320674;22;20015;-80
2021/01/12 13:14:21;;;;;;;8.38;0.68;;;16.90;60.30;;;;;;6310122;22;20015;-77
2021/01/12 13:16:47;;;;;;;8.70;1.65;;;16.90;60.10;;;;;;6319763;22;20007;-81
2021/01/12 13:19:15;;;;;;;6.82;1.00;;;16.90;60.10;;;;;;6320229;22;20078;-81
2021/01/12 13:21:52;;;;;;;7.90;1.05;;;16.90;60.10;;;;;;6320978;22;20435;-81
2021/01/12 13:24:19;;;;;;;5.53;0.90;;;16.90;60.70;;;;;;6310187;22;20003;-81
2021/01/12 13:26:49;;;;;;;7.15;0.93;;;16.90;60.20;;;;;;6320018;22;20481;-81
2021/01/12 13:29:17;;;;;;;8.25;1.00;;;16.90;60.20;;;;;;6283326;22;20079;-81
2021/01/12 13:31:45;;;;;;;5.93;1.23;;;16.80;60.10;;;;;;6283032;22;20011;-81
2021/01/12 13:34:11;;;;;;;4.15;0.60;;;16.80;60.10;;;;;;6293415;22;20026;-80
2021/01/12 13:36:37;;;;;;;16.95;1.23;;;16.80;60.20;;;;;;6319346;22;20012;-82
2021/01/12 13:39:08;;;;;;;11.15;1.17;;;16.80;60.70;;;;;;6292366;22;20010;-82
2021/01/12 13:41:35;;;;;;;6.78;0.90;;;16.80;60.50;;;;;;6308933;22;20007;-82
2021/01/12 13:44:02;;;;;;;5.40;0.88;;;16.90;59.80;;;;;;6282379;22;20031;-82
2021/01/12 13:46:29;;;;;;;8.18;0.82;;;16.80;59.50;;;;;;6319898;22;20011;-81
2021/01/12 13:48:56;;;;;;;7.10;0.90;;;16.90;60.60;;;;;;6309245;22;20040;-80
2021/01/12 13:51:22;;;;;;;6.65;1.10;;;16.80;60.00;;;;;;6309278;22;20301;-80
2021/01/12 13:53:51;;;;;;;9.30;1.60;;;16.90;60.00;;;;;;6319855;22;20012;-80
2021/01/12 13:56:23;;;;;;;10.85;1.23;;;16.90;60.20;;;;;;6319669;22;20072;-82
2021/01/12 13:58:50;;;;;;;8.60;1.27;;;16.90;60.20;;;;;;6319515;22;20037;-81
2021/01/12 14:01:19;;;;;;;9.98;1.20;;;16.90;60.00;;;;;;6309695;22;20438;-80
2021/01/12 14:03:46;;;;;;;10.48;1.00;;;17.00;59.50;;;;;;6281926;22;20086;-81
2021/01/12 14:06:12;;;;;;;11.85;0.63;;;17.00;59.60;;;;;;6319247;22;20427;-82
2021/01/12 14:08:52;;;;;;;8.05;0.90;;;17.00;59.70;;;;;;6292234;22;20099;-86
2021/01/12 14:11:24;;;;;;;18.58;1.40;;;17.00;59.70;;;;;;6254983;22;20086;-89
2021/01/12 14:14:02;;;;;;;23.10;2.42;;;17.00;59.70;;;;;;6256654;22;20363;-85
2021/01/12 14:16:33;;;;;;;16.27;2.17;;;17.00;57.60;;;;;;6256454;22;20011;-86
2021/01/12 14:18:59;;;;;;;11.60;1.23;;;16.90;58.00;;;;;;6256886;22;20015;-86
2021/01/12 14:21:25;;;;;;;13.07;1.52;;;16.90;58.60;;;;;;6256851;22;20011;-83
2021/01/12 14:23:53;;;;;;;13.57;1.60;;;16.90;58.50;;;;;;6256367;22;20427;-82
2021/01/12 14:26:19;;;;;;;12.15;1.10;;;16.90;58.30;;;;;;6282524;22;20282;-83
2021/01/12 14:28:45;;;;;;;9.75;1.20;;;16.90;58.80;;;;;;6309497;22;20007;-82
2021/01/12 14:31:12;;;;;;;15.48;1.65;;;16.90;58.90;;;;;;6292974;22;20007;-85
2021/01/12 14:33:38;;;;;;;10.02;1.13;;;16.90;58.60;;;;;;6284653;22;20018;-85
2021/01/12 14:36:06;;;;;;;7.03;1.10;;;17.00;58.50;;;;;;6258970;22;20007;-89
2021/01/12 14:38:34;;;;;;;8.80;1.08;;;17.00;58.40;;;;;;6284762;22;20345;-83
2021/01/12 14:41:00;;;;;;;9.40;1.08;;;17.00;58.30;;;;;;6311285;22;20011;-84
2021/01/12 14:43:26;;;;;;;11.52;1.45;;;17.10;58.40;;;;;;6259028;22;20008;-83
2021/01/12 14:45:52;;;;;;;16.33;1.48;;;17.10;58.00;;;;;;6311976;22;20015;-82